QTR9W YPPH-OTHH
Flight info
| Callsign | QTR9W |
|---|---|
| Flight time | N/A |
| Altitude | 28000 |
| Route | OPEGA DCT UXORA/N0510F300 DCT 22S105E 15S100E 09S095E 07S093E/N0510F320 05S091E DCT DOGAR M641 KAT DCT JATON DCT DEMON DCT MDI M300 CLC/N0503F340 M300 LOTAV DCT EMURU N563 SODEX DCT NOBTO DCT SIGMO DCT UMIBU DCT MEKRI DCT TOVOX DCT DINEX DCT KIVAM DCT IMTAL DCT KIPEM DCT EMEXA DCT MIVAL DCT KUTER DCT NONBA DCT KINAP DCT KIPIK DCT SOMAP DCT PURIN DCT DASIK DCT IMKAT DCT PASID DCT HH811 DCT ML34L |
| Aircraft | B77W/H-SDE1E2E3FGHIJ2J3J4J5M1RWXY/LB1D1 |
Departure
| Time | 2026-04-30 02:40 |
|---|---|
| Airport | Perth International Airport (YPPH) |
Arrival
| Time | N/A |
|---|---|
| Airport | Hamad International Airport (OTHH) |
| Time | Latitude | Longitude | Altitude | Speed | Heading |
|---|---|---|---|---|---|
| 2026-04-30 02:00 | -31.94006 | 115.97375 | 73 ft | 0 kts | 160° |
| 2026-04-30 02:03 | -31.93976 | 115.97357 | 62 ft | 16 kts | 142° |
| 2026-04-30 02:03 | -31.93950 | 115.97351 | 64 ft | 8 kts | 4° |
| 2026-04-30 02:03 | -31.93928 | 115.97308 | 63 ft | 12 kts | 256° |
| 2026-04-30 02:03 | -31.93972 | 115.97269 | 65 ft | 9 kts | 160° |
| 2026-04-30 02:04 | -31.94016 | 115.97293 | 64 ft | 7 kts | 153° |
| 2026-04-30 02:04 | -31.94041 | 115.97308 | 67 ft | 0 kts | 153° |
| 2026-04-30 02:27 | -31.94021 | 115.97296 | 62 ft | 4 kts | 152° |
| 2026-04-30 02:28 | -31.94002 | 115.97284 | 64 ft | 4 kts | 148° |
| 2026-04-30 02:28 | -31.93987 | 115.97268 | 62 ft | 4 kts | 114° |
| 2026-04-30 02:28 | -31.93979 | 115.97239 | 62 ft | 4 kts | 103° |
| 2026-04-30 02:28 | -31.93973 | 115.97213 | 61 ft | 4 kts | 104° |
| 2026-04-30 02:29 | -31.93966 | 115.97182 | 60 ft | 4 kts | 104° |
| 2026-04-30 02:29 | -31.93960 | 115.97153 | 60 ft | 2 kts | 103° |
| 2026-04-30 02:29 | -31.93959 | 115.97151 | 60 ft | 2 kts | 103° |
| 2026-04-30 02:33 | -31.93961 | 115.97161 | 60 ft | 3 kts | 103° |
| 2026-04-30 02:33 | -31.93964 | 115.97187 | 60 ft | 3 kts | 93° |
| 2026-04-30 02:33 | -31.93960 | 115.97216 | 61 ft | 4 kts | 73° |
| 2026-04-30 02:34 | -31.93944 | 115.97258 | 65 ft | 8 kts | 65° |
| 2026-04-30 02:34 | -31.93911 | 115.97329 | 65 ft | 10 kts | 51° |
| 2026-04-30 02:34 | -31.93845 | 115.97350 | 64 ft | 11 kts | 343° |
| 2026-04-30 02:34 | -31.93776 | 115.97308 | 59 ft | 11 kts | 330° |
| 2026-04-30 02:35 | -31.93708 | 115.97260 | 60 ft | 11 kts | 329° |
| 2026-04-30 02:35 | -31.93640 | 115.97211 | 65 ft | 11 kts | 329° |
| 2026-04-30 02:35 | -31.93571 | 115.97164 | 63 ft | 11 kts | 329° |
| 2026-04-30 02:35 | -31.93503 | 115.97115 | 63 ft | 11 kts | 328° |
| 2026-04-30 02:36 | -31.93435 | 115.97066 | 63 ft | 11 kts | 329° |
| 2026-04-30 02:36 | -31.93355 | 115.97054 | 63 ft | 12 kts | 7° |
| 2026-04-30 02:36 | -31.93265 | 115.97080 | 59 ft | 14 kts | 15° |
| 2026-04-30 02:36 | -31.93170 | 115.97108 | 56 ft | 14 kts | 13° |
| 2026-04-30 02:37 | -31.93074 | 115.97136 | 55 ft | 14 kts | 13° |
| 2026-04-30 02:37 | -31.92976 | 115.97153 | 52 ft | 14 kts | 346° |
| 2026-04-30 02:37 | -31.92925 | 115.97057 | 55 ft | 14 kts | 286° |
| 2026-04-30 02:37 | -31.92900 | 115.96943 | 51 ft | 14 kts | 283° |
| 2026-04-30 02:38 | -31.92918 | 115.96837 | 48 ft | 14 kts | 216° |
| 2026-04-30 02:38 | -31.92939 | 115.96825 | 50 ft | 1 kts | 201° |
| 2026-04-30 02:38 | -31.92943 | 115.96823 | 49 ft | 1 kts | 201° |
| 2026-04-30 02:38 | -31.92949 | 115.96821 | 51 ft | 2 kts | 201° |
| 2026-04-30 02:39 | -31.92969 | 115.96813 | 50 ft | 2 kts | 195° |
| 2026-04-30 02:39 | -31.92987 | 115.96807 | 51 ft | 9 kts | 195° |
| 2026-04-30 02:39 | -31.93319 | 115.96710 | 56 ft | 82 kts | 194° |
| 2026-04-30 02:39 | -31.94129 | 115.96476 | 64 ft | 156 kts | 193° |
| 2026-04-30 02:40 | -31.95389 | 115.96108 | 153 ft | 213 kts | 194° |
| 2026-04-30 02:40 | -31.96872 | 115.95649 | 847 ft | 221 kts | 194° |
| 2026-04-30 02:40 | -31.98275 | 115.95255 | 2280 ft | 205 kts | 194° |
| 2026-04-30 02:40 | -31.99715 | 115.94854 | 2595 ft | 220 kts | 197° |
| 2026-04-30 02:41 | -32.01017 | 115.93903 | 2868 ft | 224 kts | 229° |
| 2026-04-30 02:41 | -32.01620 | 115.92867 | 3125 ft | 228 kts | 240° |
| 2026-04-30 02:41 | -32.02443 | 115.91274 | 3467 ft | 233 kts | 239° |
| 2026-04-30 02:41 | -32.02897 | 115.89440 | 3804 ft | 243 kts | 273° |
| 2026-04-30 02:42 | -32.02428 | 115.87483 | 4004 ft | 257 kts | 288° |
| 2026-04-30 02:42 | -32.01870 | 115.85441 | 4242 ft | 266 kts | 281° |
| 2026-04-30 02:42 | -32.01484 | 115.83283 | 4757 ft | 271 kts | 278° |
| 2026-04-30 02:42 | -32.01158 | 115.81076 | 5326 ft | 275 kts | 277° |
| 2026-04-30 02:43 | -32.00856 | 115.78843 | 5955 ft | 277 kts | 277° |
| 2026-04-30 02:43 | -32.00564 | 115.76596 | 6612 ft | 278 kts | 277° |
| 2026-04-30 02:43 | -32.00273 | 115.74338 | 7200 ft | 280 kts | 277° |
| 2026-04-30 02:43 | -31.99979 | 115.72064 | 7796 ft | 281 kts | 277° |
| 2026-04-30 02:44 | -31.99682 | 115.69783 | 8414 ft | 282 kts | 278° |
| 2026-04-30 02:44 | -31.99082 | 115.67625 | 8834 ft | 288 kts | 302° |
| 2026-04-30 02:44 | -31.97750 | 115.65850 | 9316 ft | 290 kts | 313° |
| 2026-04-30 02:44 | -31.96301 | 115.64184 | 9813 ft | 291 kts | 312° |
| 2026-04-30 02:45 | -31.94868 | 115.62468 | 10244 ft | 297 kts | 311° |
| 2026-04-30 02:45 | -31.93402 | 115.60654 | 10366 ft | 315 kts | 310° |
| 2026-04-30 02:45 | -31.91855 | 115.58731 | 10507 ft | 331 kts | 311° |
| 2026-04-30 02:45 | -31.90241 | 115.56731 | 10598 ft | 343 kts | 311° |
| 2026-04-30 02:46 | -31.88569 | 115.54669 | 10672 ft | 353 kts | 311° |
| 2026-04-30 02:46 | -31.87057 | 115.52362 | 10818 ft | 361 kts | 294° |
| 2026-04-30 02:46 | -31.86293 | 115.49572 | 11361 ft | 356 kts | 281° |
| 2026-04-30 02:46 | -31.85795 | 115.46711 | 11690 ft | 358 kts | 280° |
| 2026-04-30 02:47 | -31.85244 | 115.43836 | 11939 ft | 363 kts | 283° |
| 2026-04-30 02:47 | -31.84540 | 115.40975 | 12249 ft | 368 kts | 286° |
| 2026-04-30 02:47 | -31.83756 | 115.38100 | 12888 ft | 369 kts | 286° |
| 2026-04-30 02:47 | -31.82997 | 115.35214 | 13605 ft | 370 kts | 285° |
| 2026-04-30 02:48 | -31.82285 | 115.32299 | 14187 ft | 373 kts | 284° |
| 2026-04-30 02:48 | -31.81596 | 115.29347 | 14756 ft | 376 kts | 283° |
| 2026-04-30 02:48 | -31.80925 | 115.26368 | 15315 ft | 378 kts | 282° |
| 2026-04-30 02:48 | -31.80353 | 115.23338 | 15890 ft | 380 kts | 280° |
| 2026-04-30 02:49 | -31.79853 | 115.20310 | 16449 ft | 383 kts | 279° |
| 2026-04-30 02:49 | -31.79366 | 115.17227 | 17014 ft | 385 kts | 279° |
| 2026-04-30 02:49 | -31.78874 | 115.14121 | 17560 ft | 388 kts | 279° |
| 2026-04-30 02:49 | -31.78365 | 115.10995 | 18105 ft | 391 kts | 280° |
| 2026-04-30 02:50 | -31.77841 | 115.07854 | 18609 ft | 394 kts | 280° |
| 2026-04-30 02:50 | -31.77302 | 115.04676 | 19081 ft | 396 kts | 280° |
| 2026-04-30 02:50 | -31.76756 | 115.01491 | 19563 ft | 398 kts | 280° |
| 2026-04-30 02:50 | -31.76208 | 114.98295 | 20044 ft | 400 kts | 280° |
| 2026-04-30 02:51 | -31.75657 | 114.95079 | 20499 ft | 403 kts | 280° |
| 2026-04-30 02:51 | -31.75101 | 114.91840 | 20961 ft | 405 kts | 280° |
| 2026-04-30 02:51 | -31.74542 | 114.88581 | 21425 ft | 408 kts | 280° |
| 2026-04-30 02:51 | -31.73979 | 114.85310 | 21874 ft | 410 kts | 280° |
| 2026-04-30 02:52 | -31.73411 | 114.82016 | 22320 ft | 412 kts | 280° |
| 2026-04-30 02:52 | -31.72847 | 114.78747 | 22743 ft | 415 kts | 280° |
| 2026-04-30 02:52 | -31.72271 | 114.75411 | 23163 ft | 417 kts | 280° |
| 2026-04-30 02:52 | -31.71690 | 114.72055 | 23587 ft | 420 kts | 280° |
| 2026-04-30 02:53 | -31.71106 | 114.68684 | 23961 ft | 422 kts | 280° |
| 2026-04-30 02:53 | -31.70518 | 114.65300 | 24349 ft | 423 kts | 280° |
| 2026-04-30 02:53 | -31.69929 | 114.61910 | 24717 ft | 425 kts | 280° |
| 2026-04-30 02:53 | -31.69337 | 114.58508 | 25095 ft | 426 kts | 280° |
| 2026-04-30 02:54 | -31.68742 | 114.55098 | 25452 ft | 427 kts | 280° |
| 2026-04-30 02:54 | -31.68143 | 114.51671 | 25802 ft | 429 kts | 280° |
| 2026-04-30 02:54 | -31.67540 | 114.48226 | 26154 ft | 431 kts | 280° |
| 2026-04-30 02:54 | -31.66935 | 114.44771 | 26486 ft | 432 kts | 280° |
| 2026-04-30 02:55 | -31.66335 | 114.41355 | 26804 ft | 434 kts | 280° |
| 2026-04-30 02:55 | -31.65723 | 114.37879 | 27124 ft | 435 kts | 280° |
| 2026-04-30 02:55 | -31.65110 | 114.34397 | 27438 ft | 437 kts | 280° |
| 2026-04-30 02:55 | -31.64492 | 114.30896 | 27752 ft | 438 kts | 280° |
| 2026-04-30 02:56 | -31.63871 | 114.27385 | 28035 ft | 441 kts | 280° |
| 2026-04-30 02:56 | -31.62612 | 114.20279 | 28135 ft | 448 kts | 281° |
| 2026-04-30 02:57 | -31.61326 | 114.13043 | 28133 ft | 456 kts | 281° |
| 2026-04-30 02:57 | -31.60017 | 114.05712 | 28141 ft | 462 kts | 281° |
| 2026-04-30 02:58 | -31.58695 | 113.98336 | 28143 ft | 462 kts | 281° |
| 2026-04-30 02:58 | -31.57376 | 113.91001 | 28139 ft | 462 kts | 281° |
| 2026-04-30 02:59 | -31.56049 | 113.83640 | 28141 ft | 461 kts | 281° |
| 2026-04-30 02:59 | -31.54718 | 113.76283 | 28135 ft | 460 kts | 281° |
| 2026-04-30 03:00 | -31.53386 | 113.68948 | 28146 ft | 460 kts | 281° |
| 2026-04-30 03:00 | -31.52050 | 113.61615 | 28143 ft | 459 kts | 281° |
| 2026-04-30 03:01 | -31.50713 | 113.54299 | 28144 ft | 459 kts | 281° |
| 2026-04-30 03:01 | -31.49373 | 113.46986 | 28144 ft | 459 kts | 281° |
| 2026-04-30 03:02 | -31.47715 | 113.39866 | 28142 ft | 457 kts | 296° |
| 2026-04-30 03:02 | -31.45891 | 113.36777 | 28161 ft | 466 kts | 309° |
| 2026-04-30 03:02 | -31.43450 | 113.34228 | 28138 ft | 475 kts | 321° |
| 2026-04-30 03:03 | -31.37848 | 113.30115 | 28146 ft | 471 kts | 324° |
| 2026-04-30 03:03 | -31.32400 | 113.26025 | 28140 ft | 459 kts | 320° |
| 2026-04-30 03:03 | -31.29817 | 113.23847 | 28156 ft | 458 kts | 319° |
| 2026-04-30 03:04 | -31.24620 | 113.19395 | 28169 ft | 467 kts | 320° |
| 2026-04-30 03:04 | -31.19264 | 113.14953 | 28165 ft | 476 kts | 321° |
| 2026-04-30 03:05 | -31.13791 | 113.10546 | 28153 ft | 478 kts | 321° |
| 2026-04-30 03:05 | -31.08335 | 113.06199 | 28152 ft | 477 kts | 321° |
| 2026-04-30 03:06 | -31.02863 | 113.01836 | 28151 ft | 476 kts | 321° |
| 2026-04-30 03:06 | -30.97405 | 112.97477 | 28152 ft | 475 kts | 321° |
| 2026-04-30 03:07 | -30.91962 | 112.93129 | 28151 ft | 474 kts | 321° |
| 2026-04-30 03:07 | -30.86530 | 112.88796 | 28154 ft | 473 kts | 321° |
| 2026-04-30 03:08 | -30.81092 | 112.84467 | 28153 ft | 473 kts | 321° |
| 2026-04-30 03:08 | -30.75666 | 112.80153 | 28155 ft | 472 kts | 321° |
| 2026-04-30 03:09 | -30.70271 | 112.75870 | 28159 ft | 472 kts | 321° |
| 2026-04-30 03:09 | -30.64853 | 112.71574 | 28159 ft | 472 kts | 320° |
| 2026-04-30 03:10 | -30.59424 | 112.67276 | 28159 ft | 471 kts | 320° |
| 2026-04-30 03:10 | -30.54008 | 112.62993 | 28164 ft | 471 kts | 320° |
| 2026-04-30 03:11 | -30.48595 | 112.58719 | 28158 ft | 471 kts | 320° |
| 2026-04-30 03:11 | -30.43178 | 112.54449 | 28157 ft | 471 kts | 320° |
| 2026-04-30 03:12 | -30.37762 | 112.50184 | 28161 ft | 470 kts | 320° |
| 2026-04-30 03:12 | -30.32350 | 112.45929 | 28156 ft | 470 kts | 320° |
| 2026-04-30 03:13 | -30.26944 | 112.41684 | 28159 ft | 469 kts | 320° |
| 2026-04-30 03:13 | -30.21575 | 112.37474 | 28160 ft | 468 kts | 320° |
| 2026-04-30 03:14 | -30.16182 | 112.33250 | 28159 ft | 467 kts | 320° |
| 2026-04-30 03:14 | -30.10797 | 112.29038 | 28158 ft | 467 kts | 320° |
| 2026-04-30 03:15 | -30.05415 | 112.24833 | 28162 ft | 467 kts | 320° |
| 2026-04-30 03:15 | -30.00056 | 112.20653 | 28163 ft | 467 kts | 320° |
| 2026-04-30 03:16 | -29.94658 | 112.16448 | 28159 ft | 468 kts | 320° |
| 2026-04-30 03:16 | -29.89251 | 112.12241 | 28166 ft | 469 kts | 320° |
| 2026-04-30 03:17 | -29.83840 | 112.08036 | 28163 ft | 469 kts | 320° |
| 2026-04-30 03:17 | -29.78424 | 112.03835 | 28157 ft | 469 kts | 320° |
| 2026-04-30 03:18 | -29.73002 | 111.99634 | 28160 ft | 469 kts | 320° |
| 2026-04-30 03:18 | -29.67587 | 111.95444 | 28154 ft | 469 kts | 320° |
| 2026-04-30 03:19 | -29.62176 | 111.91263 | 28154 ft | 468 kts | 320° |
| 2026-04-30 03:19 | -29.56771 | 111.87091 | 28157 ft | 468 kts | 320° |
| 2026-04-30 03:20 | -29.51396 | 111.82948 | 28156 ft | 468 kts | 320° |
| 2026-04-30 03:20 | -29.45996 | 111.78791 | 28156 ft | 467 kts | 320° |
| 2026-04-30 03:21 | -29.40588 | 111.74634 | 28156 ft | 467 kts | 320° |
| 2026-04-30 03:21 | -29.35191 | 111.70490 | 28150 ft | 467 kts | 320° |
| 2026-04-30 03:22 | -29.29792 | 111.66351 | 28154 ft | 467 kts | 320° |
| 2026-04-30 03:22 | -29.24385 | 111.62210 | 28155 ft | 467 kts | 320° |
| 2026-04-30 03:23 | -29.18972 | 111.58070 | 28150 ft | 467 kts | 320° |
| 2026-04-30 03:23 | -29.13556 | 111.53934 | 28152 ft | 468 kts | 320° |
| 2026-04-30 03:24 | -29.08175 | 111.49829 | 28148 ft | 468 kts | 320° |
| 2026-04-30 03:24 | -29.02756 | 111.45701 | 28154 ft | 468 kts | 320° |
| 2026-04-30 03:25 | -28.97335 | 111.41576 | 28149 ft | 468 kts | 320° |
| 2026-04-30 03:25 | -28.91911 | 111.37455 | 28150 ft | 468 kts | 320° |
| 2026-04-30 03:26 | -28.86485 | 111.33337 | 28145 ft | 468 kts | 320° |
| 2026-04-30 03:26 | -28.81048 | 111.29217 | 28140 ft | 468 kts | 320° |
| 2026-04-30 03:27 | -28.75619 | 111.25107 | 28152 ft | 468 kts | 320° |
| 2026-04-30 03:27 | -28.71103 | 111.21692 | 28150 ft | 468 kts | 320° |
| 2026-04-30 03:28 | -28.64785 | 111.16921 | 28150 ft | 468 kts | 320° |
| 2026-04-30 03:28 | -28.59358 | 111.12828 | 28156 ft | 468 kts | 320° |
| 2026-04-30 03:29 | -28.54833 | 111.09420 | 28155 ft | 468 kts | 320° |
| 2026-04-30 03:29 | -28.49399 | 111.05331 | 28153 ft | 469 kts | 321° |
| 2026-04-30 03:30 | -28.43037 | 111.00551 | 28151 ft | 469 kts | 321° |
| 2026-04-30 03:30 | -28.38498 | 110.97145 | 28153 ft | 469 kts | 321° |
| 2026-04-30 03:31 | -28.33096 | 110.93097 | 28150 ft | 469 kts | 321° |
| 2026-04-30 03:31 | -28.27648 | 110.89018 | 28152 ft | 468 kts | 320° |
| 2026-04-30 03:32 | -28.22207 | 110.84950 | 28149 ft | 468 kts | 320° |
| 2026-04-30 03:32 | -28.16765 | 110.80887 | 28147 ft | 468 kts | 320° |
| 2026-04-30 03:33 | -28.11323 | 110.76828 | 28149 ft | 468 kts | 320° |
| 2026-04-30 03:33 | -28.05870 | 110.72766 | 28153 ft | 468 kts | 320° |
| 2026-04-30 03:34 | -28.00430 | 110.68718 | 28150 ft | 468 kts | 320° |
| 2026-04-30 03:34 | -27.94994 | 110.64679 | 28151 ft | 468 kts | 320° |
| 2026-04-30 03:35 | -27.89592 | 110.60669 | 28150 ft | 467 kts | 320° |
| 2026-04-30 03:35 | -27.84148 | 110.56634 | 28150 ft | 467 kts | 320° |
| 2026-04-30 03:36 | -27.78708 | 110.52607 | 28152 ft | 467 kts | 320° |
| 2026-04-30 03:36 | -27.73267 | 110.48583 | 28150 ft | 467 kts | 320° |
| 2026-04-30 03:37 | -27.67830 | 110.44567 | 28152 ft | 467 kts | 320° |
| 2026-04-30 03:37 | -27.62397 | 110.40559 | 28152 ft | 467 kts | 320° |
| 2026-04-30 03:38 | -27.56962 | 110.36554 | 28144 ft | 467 kts | 320° |
| 2026-04-30 03:38 | -27.51521 | 110.32550 | 28152 ft | 466 kts | 320° |
| 2026-04-30 03:39 | -27.46085 | 110.28555 | 28152 ft | 466 kts | 320° |
| 2026-04-30 03:39 | -27.40689 | 110.24593 | 28152 ft | 466 kts | 320° |
| 2026-04-30 03:40 | -27.35253 | 110.20606 | 28146 ft | 466 kts | 320° |
| 2026-04-30 03:40 | -27.29817 | 110.16625 | 28147 ft | 466 kts | 320° |
| 2026-04-30 03:41 | -27.24376 | 110.12645 | 28146 ft | 466 kts | 320° |
| 2026-04-30 03:41 | -27.18937 | 110.08670 | 28147 ft | 466 kts | 320° |
| 2026-04-30 03:42 | -27.13492 | 110.04697 | 28147 ft | 466 kts | 320° |
| 2026-04-30 03:42 | -27.08048 | 110.00729 | 28162 ft | 466 kts | 320° |
| 2026-04-30 03:43 | -27.02636 | 109.96788 | 28149 ft | 466 kts | 320° |
| 2026-04-30 03:43 | -26.97190 | 109.92827 | 28144 ft | 467 kts | 320° |
| 2026-04-30 03:44 | -26.91737 | 109.88866 | 28152 ft | 467 kts | 320° |
| 2026-04-30 03:44 | -26.86288 | 109.84912 | 28143 ft | 467 kts | 320° |
| 2026-04-30 03:45 | -26.80833 | 109.80958 | 28148 ft | 467 kts | 320° |
| 2026-04-30 03:45 | -26.75409 | 109.77033 | 28145 ft | 467 kts | 320° |
| 2026-04-30 03:46 | -26.69944 | 109.73081 | 28140 ft | 467 kts | 320° |
| 2026-04-30 03:46 | -26.64492 | 109.69144 | 28140 ft | 467 kts | 320° |
| 2026-04-30 03:47 | -26.59035 | 109.65206 | 28144 ft | 467 kts | 320° |
| 2026-04-30 03:47 | -26.53567 | 109.61267 | 28135 ft | 467 kts | 320° |
| 2026-04-30 03:48 | -26.48104 | 109.57335 | 28136 ft | 467 kts | 320° |
| 2026-04-30 03:48 | -26.42630 | 109.53399 | 28141 ft | 468 kts | 320° |
| 2026-04-30 03:49 | -26.37186 | 109.49490 | 28136 ft | 468 kts | 320° |
| 2026-04-30 03:49 | -26.31706 | 109.45559 | 28137 ft | 468 kts | 320° |
| 2026-04-30 03:50 | -26.26222 | 109.41630 | 28135 ft | 468 kts | 320° |
| 2026-04-30 03:50 | -26.20732 | 109.37700 | 28136 ft | 469 kts | 320° |
| 2026-04-30 03:51 | -26.15246 | 109.33778 | 28139 ft | 469 kts | 320° |
| 2026-04-30 03:51 | -26.09788 | 109.29881 | 28134 ft | 469 kts | 320° |
| 2026-04-30 03:52 | -26.04291 | 109.25959 | 28138 ft | 469 kts | 320° |
| 2026-04-30 03:52 | -25.99062 | 109.21856 | 28120 ft | 449 kts | 312° |
| 2026-04-30 03:53 | -25.94746 | 109.16977 | 28140 ft | 444 kts | 305° |
| 2026-04-30 03:53 | -25.90562 | 109.11820 | 28145 ft | 453 kts | 307° |
| 2026-04-30 03:54 | -25.86139 | 109.06804 | 28142 ft | 459 kts | 309° |
| 2026-04-30 03:54 | -25.81465 | 109.01949 | 28137 ft | 461 kts | 311° |
| 2026-04-30 03:55 | -25.76757 | 108.97116 | 28134 ft | 460 kts | 310° |
| 2026-04-30 03:55 | -25.72147 | 108.92191 | 28129 ft | 459 kts | 309° |
| 2026-04-30 03:56 | -25.67611 | 108.87213 | 28131 ft | 458 kts | 308° |
| 2026-04-30 03:56 | -25.63099 | 108.82230 | 28133 ft | 458 kts | 308° |
| 2026-04-30 03:57 | -25.58605 | 108.77282 | 28132 ft | 458 kts | 308° |
| 2026-04-30 03:57 | -25.54085 | 108.72324 | 28130 ft | 457 kts | 309° |
| 2026-04-30 03:58 | -25.49557 | 108.67368 | 28126 ft | 457 kts | 309° |
| 2026-04-30 03:58 | -25.45024 | 108.62412 | 28132 ft | 458 kts | 309° |
| 2026-04-30 03:59 | -25.40496 | 108.57465 | 28131 ft | 458 kts | 309° |
| 2026-04-30 03:59 | -25.35955 | 108.52511 | 28127 ft | 458 kts | 309° |
| 2026-04-30 04:00 | -25.31414 | 108.47562 | 28129 ft | 458 kts | 309° |
| 2026-04-30 04:00 | -25.26879 | 108.42619 | 28055 ft | 459 kts | 310° |
| 2026-04-30 04:01 | -25.22356 | 108.37684 | 28112 ft | 460 kts | 310° |
| 2026-04-30 04:01 | -25.17779 | 108.32716 | 28120 ft | 463 kts | 311° |
| 2026-04-30 04:02 | -25.13167 | 108.27721 | 28118 ft | 465 kts | 311° |
| 2026-04-30 04:02 | -25.08537 | 108.22709 | 28113 ft | 466 kts | 311° |
| 2026-04-30 04:03 | -25.03914 | 108.17707 | 28124 ft | 466 kts | 311° |
| 2026-04-30 04:03 | -24.99290 | 108.12706 | 28128 ft | 465 kts | 311° |
| 2026-04-30 04:04 | -24.94671 | 108.07717 | 28122 ft | 464 kts | 311° |
| 2026-04-30 04:04 | -24.90082 | 108.02766 | 28111 ft | 464 kts | 311° |
| 2026-04-30 04:05 | -24.85478 | 107.97803 | 28109 ft | 463 kts | 311° |
| 2026-04-30 04:05 | -24.80865 | 107.92836 | 28118 ft | 463 kts | 311° |
| 2026-04-30 04:06 | -24.76248 | 107.87871 | 28114 ft | 464 kts | 311° |
| 2026-04-30 04:06 | -24.71629 | 107.82907 | 28117 ft | 464 kts | 311° |
| 2026-04-30 04:07 | -24.67003 | 107.77943 | 28105 ft | 465 kts | 311° |
| 2026-04-30 04:08 | -24.60047 | 107.70491 | 28169 ft | 465 kts | 310° |
| 2026-04-30 04:08 | -24.55405 | 107.65537 | 28121 ft | 464 kts | 310° |